Time;durP1;ratioP1;P1;durP2;ratioP2;P2;SDS_P1;SDS_P2;PMS_P1;PMS_P2;Temp;Humidity;BMP_temperature;BMP_pressure;BME280_temperature;BME280_humidity;BME280_pressure;Samples;Min_cycle;Max_cycle;Signal;HPM_P1;HPM_P2
2023/10/15 05:02:36;;;;;;;6.40;2.53;;;;;;;;;;4932749;29;20500;-75
2023/10/15 05:05:06;;;;;;;11.63;3.00;;;;;;;;;;4934337;29;20530;-76
2023/10/15 05:07:32;;;;;;;9.17;3.40;;;;;;;;;;4934108;29;20394;-75
2023/10/15 05:09:59;;;;;;;6.97;2.80;;;;;;;;;;4934312;29;20745;-77
2023/10/15 05:12:28;;;;;;;7.20;3.10;;;;;;;;;;4934261;29;20430;-75
2023/10/15 05:14:54;;;;;;;10.73;3.77;;;;;;;;;;4934051;29;20453;-76
2023/10/15 05:17:20;;;;;;;8.43;3.30;;;;;;;;;;4919893;29;20437;-76
2023/10/15 05:19:52;;;;;;;8.53;3.40;;;;;;;;;;4940910;29;20417;-75
2023/10/15 05:22:19;;;;;;;7.03;3.07;;;;;;;;;;4940899;29;20469;-75
2023/10/15 05:24:45;;;;;;;9.73;2.97;;;;;;;;;;4937653;29;20556;-77
2023/10/15 05:27:12;;;;;;;5.03;2.70;;;;;;;;;;4937628;29;20894;-75
2023/10/15 05:29:38;;;;;;;7.43;3.17;;;;;;;;;;4937139;29;20418;-76
2023/10/15 05:32:04;;;;;;;20.03;3.93;;;;;;;;;;4937347;29;20454;-76
2023/10/15 05:34:30;;;;;;;7.10;3.30;;;;;;;;;;4937475;29;20421;-75
2023/10/15 05:36:56;;;;;;;8.00;3.30;;;;;;;;;;4937247;29;20425;-76
2023/10/15 05:39:24;;;;;;;10.10;3.23;;;;;;;;;;4937001;29;20913;-76
2023/10/15 05:41:50;;;;;;;5.80;2.53;;;;;;;;;;4937238;29;20465;-75
2023/10/15 05:44:18;;;;;;;9.53;3.33;;;;;;;;;;4937091;29;20778;-75
2023/10/15 05:46:44;;;;;;;4.37;2.93;;;;;;;;;;4936956;29;20414;-75
2023/10/15 05:49:11;;;;;;;6.80;2.87;;;;;;;;;;4936878;29;20410;-76
2023/10/15 05:51:37;;;;;;;3.17;2.17;;;;;;;;;;4936638;29;20445;-75
2023/10/15 05:54:04;;;;;;;7.47;3.13;;;;;;;;;;4936954;29;20426;-75
2023/10/15 05:56:30;;;;;;;6.00;3.07;;;;;;;;;;4936681;29;20417;-76
2023/10/15 05:58:57;;;;;;;8.53;3.33;;;;;;;;;;4936947;29;20425;-76
2023/10/15 06:01:23;;;;;;;7.97;3.10;;;;;;;;;;4936805;29;20507;-73
2023/10/15 06:03:50;;;;;;;9.17;2.93;;;;;;;;;;4919158;29;20462;-76
2023/10/15 06:06:16;;;;;;;10.90;2.77;;;;;;;;;;4936464;29;20464;-74
2023/10/15 06:08:43;;;;;;;6.57;3.37;;;;;;;;;;4936240;29;20414;-74
2023/10/15 06:11:09;;;;;;;14.67;3.07;;;;;;;;;;4936485;29;20916;-75
2023/10/15 06:13:35;;;;;;;5.80;2.03;;;;;;;;;;4936555;29;20417;-74
2023/10/15 06:16:03;;;;;;;8.37;2.43;;;;;;;;;;4936349;29;20429;-75
2023/10/15 06:18:30;;;;;;;5.70;2.80;;;;;;;;;;4936039;29;20842;-73
2023/10/15 06:20:56;;;;;;;11.67;2.90;;;;;;;;;;4936087;29;20807;-77
2023/10/15 06:23:22;;;;;;;16.37;3.13;;;;;;;;;;4936112;29;20413;-77
2023/10/15 06:25:48;;;;;;;14.60;3.03;;;;;;;;;;4936135;29;20496;-75
2023/10/15 06:28:14;;;;;;;4.33;2.80;;;;;;;;;;4935178;29;20917;-75
2023/10/15 06:30:41;;;;;;;9.93;2.40;;;;;;;;;;4936197;29;20493;-75
2023/10/15 06:33:07;;;;;;;4.73;2.10;;;;;;;;;;4936565;29;20417;-76
2023/10/15 06:35:33;;;;;;;12.40;3.00;;;;;;;;;;4936541;29;20502;-75
2023/10/15 06:37:59;;;;;;;6.93;3.17;;;;;;;;;;4936119;29;20476;-75
2023/10/15 06:40:26;;;;;;;8.67;2.50;;;;;;;;;;4936437;29;20795;-75
2023/10/15 06:42:53;;;;;;;8.20;2.83;;;;;;;;;;4936252;29;20480;-75
2023/10/15 06:45:19;;;;;;;8.23;2.93;;;;;;;;;;4935820;29;20414;-75
2023/10/15 06:47:45;;;;;;;7.47;2.63;;;;;;;;;;4935721;29;20512;-75
2023/10/15 06:50:11;;;;;;;5.83;2.43;;;;;;;;;;4936001;29;20414;-75
2023/10/15 06:52:39;;;;;;;7.07;3.03;;;;;;;;;;4935785;29;20425;-75
2023/10/15 06:55:05;;;;;;;7.57;3.23;;;;;;;;;;4936086;29;20472;-75
2023/10/15 06:57:32;;;;;;;5.27;2.33;;;;;;;;;;4936352;29;20417;-75
2023/10/15 06:59:58;;;;;;;7.70;2.23;;;;;;;;;;4937186;29;20425;-75
2023/10/15 07:02:24;;;;;;;8.93;2.30;;;;;;;;;;4935790;29;20472;-74
2023/10/15 07:04:50;;;;;;;7.30;2.43;;;;;;;;;;4919421;29;20462;-74
2023/10/15 07:07:16;;;;;;;7.93;3.00;;;;;;;;;;4936257;29;20405;-76
2023/10/15 07:09:42;;;;;;;5.70;2.33;;;;;;;;;;4918485;29;20425;-76
2023/10/15 07:12:08;;;;;;;3.50;2.20;;;;;;;;;;4935234;29;20501;-75
2023/10/15 07:14:34;;;;;;;11.83;2.33;;;;;;;;;;4935447;29;20436;-75
2023/10/15 07:17:00;;;;;;;6.87;2.50;;;;;;;;;;4935131;29;20909;-75
2023/10/15 07:19:26;;;;;;;11.57;3.00;;;;;;;;;;4935170;29;20917;-75
2023/10/15 07:21:52;;;;;;;7.43;2.50;;;;;;;;;;4935266;29;20469;-75
2023/10/15 07:24:18;;;;;;;8.17;2.70;;;;;;;;;;4935548;29;20510;-74
2023/10/15 07:26:44;;;;;;;7.80;2.20;;;;;;;;;;4935863;29;20788;-76
2023/10/15 07:29:10;;;;;;;9.47;3.10;;;;;;;;;;4934795;29;20878;-75
2023/10/15 07:31:38;;;;;;;10.90;2.90;;;;;;;;;;4935253;29;20973;-75
2023/10/15 07:34:04;;;;;;;7.37;2.67;;;;;;;;;;4935155;29;20418;-75
2023/10/15 07:36:30;;;;;;;10.57;3.20;;;;;;;;;;4918109;29;20755;-76
2023/10/15 07:38:57;;;;;;;6.60;2.20;;;;;;;;;;4934934;29;20433;-75
2023/10/15 07:41:22;;;;;;;4.57;2.20;;;;;;;;;;4935139;29;20512;-74
2023/10/15 07:43:48;;;;;;;8.23;2.90;;;;;;;;;;4935521;29;20410;-76
2023/10/15 07:46:14;;;;;;;7.80;2.53;;;;;;;;;;4935357;29;20944;-75
2023/10/15 07:48:40;;;;;;;9.13;2.30;;;;;;;;;;4934863;29;20429;-76
2023/10/15 07:51:07;;;;;;;6.03;2.60;;;;;;;;;;4935477;29;20441;-74
2023/10/15 07:53:33;;;;;;;6.73;2.50;;;;;;;;;;4935473;29;20441;-74
2023/10/15 07:55:59;;;;;;;5.60;2.57;;;;;;;;;;4935819;29;20847;-75
2023/10/15 07:58:25;;;;;;;6.20;2.30;;;;;;;;;;4935716;29;20937;-75
2023/10/15 08:00:53;;;;;;;4.40;1.93;;;;;;;;;;4934985;29;20453;-75
2023/10/15 08:03:18;;;;;;;4.10;2.50;;;;;;;;;;4930794;29;20434;-78
2023/10/15 08:05:46;;;;;;;9.17;2.23;;;;;;;;;;4934174;29;20421;-76
2023/10/15 08:08:12;;;;;;;9.43;2.60;;;;;;;;;;4934583;29;20421;-75
2023/10/15 08:10:38;;;;;;;7.10;2.77;;;;;;;;;;4934615;29;20433;-76
2023/10/15 08:13:05;;;;;;;11.83;2.67;;;;;;;;;;4934641;29;20418;-76
2023/10/15 08:15:34;;;;;;;7.47;2.57;;;;;;;;;;4935040;29;20461;-75
2023/10/15 08:18:01;;;;;;;5.87;2.67;;;;;;;;;;4934571;29;20414;-75
2023/10/15 08:20:33;;;;;;;10.80;2.17;;;;;;;;;;4935262;29;20421;-75
2023/10/15 08:23:00;;;;;;;11.37;2.97;;;;;;;;;;4917652;29;20469;-76
2023/10/15 08:25:26;;;;;;;7.07;2.10;;;;;;;;;;4934213;29;20436;-76
2023/10/15 08:27:52;;;;;;;9.73;2.20;;;;;;;;;;4934635;29;20414;-76
2023/10/15 08:30:18;;;;;;;5.50;2.53;;;;;;;;;;4934745;29;20468;-76
2023/10/15 08:32:45;;;;;;;10.77;2.07;;;;;;;;;;4917585;29;20933;-76
2023/10/15 08:35:13;;;;;;;5.93;2.43;;;;;;;;;;4935137;29;20529;-76
2023/10/15 08:37:39;;;;;;;6.13;2.77;;;;;;;;;;4934286;29;20440;-76
2023/10/15 08:40:06;;;;;;;11.30;2.50;;;;;;;;;;4934848;29;20410;-74
2023/10/15 08:42:36;;;;;;;8.33;2.57;;;;;;;;;;4934331;29;20476;-73
2023/10/15 08:45:05;;;;;;;7.60;2.93;;;;;;;;;;4934362;29;20441;-73
2023/10/15 08:47:35;;;;;;;5.77;2.10;;;;;;;;;;4934501;29;20412;-74
2023/10/15 08:50:01;;;;;;;11.87;3.60;;;;;;;;;;4933828;29;20429;-74
2023/10/15 08:52:28;;;;;;;11.80;2.47;;;;;;;;;;4937330;29;20453;-75
2023/10/15 08:54:55;;;;;;;6.50;2.40;;;;;;;;;;4920896;29;20586;-74
2023/10/15 08:57:22;;;;;;;5.50;2.20;;;;;;;;;;4937841;29;20424;-74
2023/10/15 08:59:50;;;;;;;5.97;2.30;;;;;;;;;;4937731;29;20417;-73
2023/10/15 09:02:18;;;;;;;3.37;1.57;;;;;;;;;;4937275;29;20524;-75
2023/10/15 09:04:45;;;;;;;9.40;2.10;;;;;;;;;;4937880;29;20413;-74
2023/10/15 09:07:11;;;;;;;10.37;2.07;;;;;;;;;;4937940;29;20917;-74
2023/10/15 09:09:37;;;;;;;3.23;1.63;;;;;;;;;;4937697;29;20413;-74
2023/10/15 09:12:06;;;;;;;4.80;1.80;;;;;;;;;;4937813;29;20516;-74
2023/10/15 09:14:39;;;;;;;8.17;1.83;;;;;;;;;;4937369;29;20525;-75
2023/10/15 09:17:09;;;;;;;6.20;1.80;;;;;;;;;;4937739;29;20502;-74
2023/10/15 09:19:36;;;;;;;8.33;1.80;;;;;;;;;;4937425;29;20421;-75
2023/10/15 09:22:02;;;;;;;13.60;3.53;;;;;;;;;;4937342;29;20995;-75
2023/10/15 09:24:28;;;;;;;5.03;2.10;;;;;;;;;;4937729;29;20406;-75
2023/10/15 09:26:54;;;;;;;7.47;2.00;;;;;;;;;;4937293;29;20438;-75
2023/10/15 09:29:20;;;;;;;11.50;2.70;;;;;;;;;;4937067;29;20821;-75
2023/10/15 09:31:47;;;;;;;11.80;2.00;;;;;;;;;;4937090;29;20437;-74
2023/10/15 09:34:13;;;;;;;7.33;2.20;;;;;;;;;;4937261;29;20417;-75
2023/10/15 09:36:39;;;;;;;7.17;2.37;;;;;;;;;;4920185;29;20492;-74
2023/10/15 09:39:12;;;;;;;10.10;2.27;;;;;;;;;;4936805;29;20940;-74
2023/10/15 09:41:41;;;;;;;6.73;2.27;;;;;;;;;;4919944;29;20977;-73
2023/10/15 09:44:07;;;;;;;5.33;2.10;;;;;;;;;;4937118;29;20410;-74
2023/10/15 09:46:33;;;;;;;7.37;2.77;;;;;;;;;;4936659;29;20417;-74
2023/10/15 09:49:00;;;;;;;5.03;1.67;;;;;;;;;;4936993;29;20754;-76
2023/10/15 09:51:26;;;;;;;4.83;1.77;;;;;;;;;;4936779;29;21008;-73
2023/10/15 09:53:53;;;;;;;7.83;2.40;;;;;;;;;;4936834;29;20418;-74
2023/10/15 09:56:19;;;;;;;3.50;1.73;;;;;;;;;;4919428;29;20426;-73
2023/10/15 09:58:45;;;;;;;2.80;1.73;;;;;;;;;;4936364;29;20548;-73
2023/10/15 10:01:25;;;;;;;2.43;1.50;;;;;;;;;;4936460;29;20980;-73
2023/10/15 10:04:14;;;;;;;6.40;1.93;;;;;;;;;;4932767;29;20473;-72
2023/10/15 10:06:53;;;;;;;5.50;1.90;;;;;;;;;;4940715;29;20441;-72
2023/10/15 10:09:36;;;;;;;6.47;1.80;;;;;;;;;;4937551;29;20496;-73
2023/10/15 10:12:05;;;;;;;9.20;2.30;;;;;;;;;;4933376;29;20536;-73
2023/10/15 10:14:34;;;;;;;2.97;1.53;;;;;;;;;;4939579;29;20437;-72
2023/10/15 10:17:00;;;;;;;1.87;1.63;;;;;;;;;;4939171;29;20424;-73
2023/10/15 10:19:29;;;;;;;7.47;1.73;;;;;;;;;;4939056;29;20863;-73
2023/10/15 10:21:55;;;;;;;10.10;2.40;;;;;;;;;;4946562;29;20500;-72
2023/10/15 10:24:23;;;;;;;2.50;1.57;;;;;;;;;;4947298;29;20508;-72
2023/10/15 10:26:56;;;;;;;4.83;2.57;;;;;;;;;;4936350;29;20429;-73
2023/10/15 10:29:26;;;;;;;11.10;2.07;;;;;;;;;;4933121;29;20406;-73
2023/10/15 10:31:55;;;;;;;4.57;1.80;;;;;;;;;;4918839;29;20449;-73
2023/10/15 10:34:29;;;;;;;5.20;1.70;;;;;;;;;;4936438;29;20473;-73
2023/10/15 10:36:55;;;;;;;5.60;1.90;;;;;;;;;;4936095;29;20428;-74
2023/10/15 10:39:22;;;;;;;2.67;1.50;;;;;;;;;;4935538;29;20489;-74
2023/10/15 10:41:54;;;;;;;7.30;1.67;;;;;;;;;;4936098;29;20491;-73
2023/10/15 10:44:23;;;;;;;6.80;1.87;;;;;;;;;;4936503;29;20453;-73
2023/10/15 10:46:50;;;;;;;11.00;2.87;;;;;;;;;;4935499;29;20434;-73
2023/10/15 10:49:18;;;;;;;6.40;1.93;;;;;;;;;;4935876;29;20413;-71
2023/10/15 10:52:03;;;;;;;4.67;1.87;;;;;;;;;;4935525;29;21872;-73
2023/10/15 10:54:29;;;;;;;3.93;1.83;;;;;;;;;;4936134;29;20482;-75
2023/10/15 10:56:56;;;;;;;9.23;1.80;;;;;;;;;;4935547;29;20827;-74
2023/10/15 10:59:22;;;;;;;4.57;2.00;;;;;;;;;;4935117;29;20501;-74
2023/10/15 11:01:48;;;;;;;6.37;1.60;;;;;;;;;;4934900;29;20516;-74
2023/10/15 11:04:17;;;;;;;2.60;1.47;;;;;;;;;;4941379;29;20436;-75
2023/10/15 11:06:48;;;;;;;5.60;1.60;;;;;;;;;;4935979;29;20429;-75
2023/10/15 11:09:20;;;;;;;9.87;2.00;;;;;;;;;;4934896;29;20417;-74
2023/10/15 11:11:47;;;;;;;3.70;2.30;;;;;;;;;;4935452;29;20498;-75
2023/10/15 11:14:13;;;;;;;6.00;1.93;;;;;;;;;;4935250;29;20771;-74
2023/10/15 11:16:43;;;;;;;7.77;2.40;;;;;;;;;;4917333;29;20437;-73
2023/10/15 11:19:15;;;;;;;6.60;2.30;;;;;;;;;;4931702;29;20438;-73
2023/10/15 11:21:42;;;;;;;6.20;2.40;;;;;;;;;;4934730;29;20980;-73
2023/10/15 11:24:09;;;;;;;9.30;3.07;;;;;;;;;;4934963;29;20901;-73
2023/10/15 11:26:36;;;;;;;5.00;2.10;;;;;;;;;;4935303;29;20969;-73
2023/10/15 11:29:03;;;;;;;3.40;2.10;;;;;;;;;;4934813;29;20480;-73
2023/10/15 11:31:29;;;;;;;4.70;2.40;;;;;;;;;;4934747;29;20448;-73
2023/10/15 11:33:55;;;;;;;5.00;2.40;;;;;;;;;;4917035;29;20438;-73
2023/10/15 11:36:25;;;;;;;6.87;2.90;;;;;;;;;;4935189;29;20458;-72
2023/10/15 11:38:52;;;;;;;5.03;2.87;;;;;;;;;;4935266;29;20917;-72
2023/10/15 11:41:18;;;;;;;11.93;2.80;;;;;;;;;;4935897;29;20441;-72
2023/10/15 11:43:49;;;;;;;4.60;2.40;;;;;;;;;;4935388;29;20544;-72
2023/10/15 11:46:19;;;;;;;5.20;2.10;;;;;;;;;;4935622;29;20909;-73
2023/10/15 11:48:45;;;;;;;6.57;1.63;;;;;;;;;;4934612;29;20894;-73
2023/10/15 11:51:11;;;;;;;3.13;2.07;;;;;;;;;;4934652;29;20481;-73
2023/10/15 11:53:41;;;;;;;2.20;1.77;;;;;;;;;;4935100;29;20436;-73
2023/10/15 11:56:16;;;;;;;14.93;2.83;;;;;;;;;;4935030;29;20409;-73
2023/10/15 11:58:45;;;;;;;4.53;2.50;;;;;;;;;;4934601;29;20424;-73
2023/10/15 12:01:14;;;;;;;6.57;2.00;;;;;;;;;;4934397;29;20453;-73
2023/10/15 12:03:41;;;;;;;5.90;2.00;;;;;;;;;;4934730;29;20426;-72
2023/10/15 12:06:07;;;;;;;4.90;2.03;;;;;;;;;;4934544;29;20480;-73
2023/10/15 12:08:33;;;;;;;6.03;2.50;;;;;;;;;;4934264;29;20890;-73
2023/10/15 12:10:59;;;;;;;4.20;1.80;;;;;;;;;;4934578;29;20851;-73
2023/10/15 12:13:26;;;;;;;6.00;2.17;;;;;;;;;;4934517;29;20425;-73
2023/10/15 12:15:52;;;;;;;4.57;2.03;;;;;;;;;;4917133;29;20433;-69
2023/10/15 12:18:18;;;;;;;3.90;1.70;;;;;;;;;;4941963;29;20445;-72
2023/10/15 12:20:44;;;;;;;9.73;1.70;;;;;;;;;;4934124;29;20452;-72
2023/10/15 12:23:10;;;;;;;7.30;2.07;;;;;;;;;;4934253;29;20522;-72
2023/10/15 12:25:38;;;;;;;4.60;2.60;;;;;;;;;;4934863;29;20781;-73
2023/10/15 12:28:04;;;;;;;5.67;2.10;;;;;;;;;;4937919;29;20417;-73
2023/10/15 12:30:32;;;;;;;5.40;2.43;;;;;;;;;;4937986;29;20425;-73
2023/10/15 12:32:58;;;;;;;3.57;2.03;;;;;;;;;;4942573;29;20501;-73
2023/10/15 12:35:27;;;;;;;3.90;1.40;;;;;;;;;;4933570;29;20924;-73
2023/10/15 12:38:02;;;;;;;3.00;2.00;;;;;;;;;;4937799;29;20509;-72
2023/10/15 12:40:38;;;;;;;1.90;1.40;;;;;;;;;;4937830;29;20828;-73
2023/10/15 12:43:15;;;;;;;3.30;1.93;;;;;;;;;;4937729;29;20472;-74
2023/10/15 12:45:44;;;;;;;2.97;1.90;;;;;;;;;;4937580;29;20556;-73
2023/10/15 12:48:10;;;;;;;2.83;1.67;;;;;;;;;;4937502;29;20457;-73
2023/10/15 12:50:36;;;;;;;3.50;2.23;;;;;;;;;;4937411;29;20460;-73
2023/10/15 12:53:03;;;;;;;3.73;1.83;;;;;;;;;;4920642;29;20434;-72
2023/10/15 12:55:29;;;;;;;5.17;1.47;;;;;;;;;;4938067;29;20953;-76
2023/10/15 12:57:57;;;;;;;2.87;1.50;;;;;;;;;;4937278;29;20902;-72
2023/10/15 13:00:26;;;;;;;8.03;2.90;;;;;;;;;;4936787;29;20884;-71
2023/10/15 13:02:53;;;;;;;6.43;1.57;;;;;;;;;;4938289;29;20477;-71
2023/10/15 13:05:23;;;;;;;6.37;2.30;;;;;;;;;;4938210;29;20500;-71
2023/10/15 13:07:49;;;;;;;6.10;2.07;;;;;;;;;;4938274;29;20931;-71
2023/10/15 13:10:17;;;;;;;6.30;1.90;;;;;;;;;;4938601;29;20423;-71
2023/10/15 13:12:44;;;;;;;9.00;2.33;;;;;;;;;;4937843;29;20421;-71
2023/10/15 13:15:10;;;;;;;1.90;1.37;;;;;;;;;;4937937;29;20506;-70
2023/10/15 13:17:39;;;;;;;3.70;2.03;;;;;;;;;;4938069;29;20480;-72
2023/10/15 13:20:06;;;;;;;1.97;1.57;;;;;;;;;;4939149;29;20932;-72
2023/10/15 13:22:32;;;;;;;6.20;1.77;;;;;;;;;;4938324;29;20472;-71
2023/10/15 13:24:58;;;;;;;3.90;1.87;;;;;;;;;;4945319;29;20413;-72
2023/10/15 13:27:25;;;;;;;5.97;1.60;;;;;;;;;;4934862;29;20425;-71
2023/10/15 13:29:51;;;;;;;4.50;1.50;;;;;;;;;;4955893;29;20409;-71
2023/10/15 13:32:17;;;;;;;2.80;1.53;;;;;;;;;;4939478;29;20440;-71
2023/10/15 13:34:43;;;;;;;7.77;2.10;;;;;;;;;;4952138;29;20426;-71
2023/10/15 13:37:12;;;;;;;3.80;2.10;;;;;;;;;;4936902;29;20886;-71
2023/10/15 13:39:39;;;;;;;2.20;1.30;;;;;;;;;;4920698;29;20418;-71
2023/10/15 13:42:05;;;;;;;7.00;1.53;;;;;;;;;;4939324;29;20984;-71
2023/10/15 13:44:32;;;;;;;5.50;1.77;;;;;;;;;;4950546;29;20410;-72
2023/10/15 13:46:58;;;;;;;7.13;2.50;;;;;;;;;;4932388;29;20453;-72
2023/10/15 13:49:24;;;;;;;2.40;1.60;;;;;;;;;;4936648;29;20433;-71
2023/10/15 13:51:50;;;;;;;5.43;1.50;;;;;;;;;;4937266;29;20444;-72
2023/10/15 13:54:16;;;;;;;6.37;2.00;;;;;;;;;;4937269;29;20440;-72
2023/10/15 13:56:42;;;;;;;8.30;2.07;;;;;;;;;;4936876;29;20417;-71
2023/10/15 13:59:14;;;;;;;2.50;1.50;;;;;;;;;;4937076;29;20538;-71
2023/10/15 14:01:43;;;;;;;4.53;1.50;;;;;;;;;;4937099;29;20481;-71
2023/10/15 14:04:09;;;;;;;3.57;1.60;;;;;;;;;;4937412;29;20433;-72
2023/10/15 14:06:37;;;;;;;3.97;1.47;;;;;;;;;;4919519;29;20433;-72
2023/10/15 14:09:07;;;;;;;3.53;1.40;;;;;;;;;;4936839;29;20450;-72
2023/10/15 14:11:33;;;;;;;3.60;1.43;;;;;;;;;;4937181;29;20430;-72
2023/10/15 14:13:59;;;;;;;3.00;1.13;;;;;;;;;;4936722;29;20414;-72
2023/10/15 14:16:25;;;;;;;3.07;1.97;;;;;;;;;;4936797;29;20425;-71
2023/10/15 14:18:51;;;;;;;2.30;1.30;;;;;;;;;;4919235;29;20513;-71
2023/10/15 14:21:18;;;;;;;6.03;2.37;;;;;;;;;;4936580;29;20444;-71
2023/10/15 14:23:45;;;;;;;3.93;2.07;;;;;;;;;;4936617;29;20478;-72
2023/10/15 14:26:13;;;;;;;5.10;2.13;;;;;;;;;;4936834;29;20559;-71
2023/10/15 14:28:40;;;;;;;1.70;1.70;;;;;;;;;;4936781;29;20413;-71
2023/10/15 14:31:06;;;;;;;2.47;1.30;;;;;;;;;;4936605;29;20430;-71
2023/10/15 14:33:32;;;;;;;5.73;1.90;;;;;;;;;;4936186;29;20793;-71
2023/10/15 14:36:02;;;;;;;6.03;1.53;;;;;;;;;;4936083;29;20500;-72
2023/10/15 14:38:29;;;;;;;4.53;2.00;;;;;;;;;;4935741;29;20406;-72
2023/10/15 14:40:55;;;;;;;3.23;1.93;;;;;;;;;;4936154;29;20438;-72
2023/10/15 14:43:21;;;;;;;4.17;1.73;;;;;;;;;;4936459;29;21004;-70
2023/10/15 14:45:47;;;;;;;2.80;1.50;;;;;;;;;;4935843;29;20480;-70
2023/10/15 14:48:17;;;;;;;3.07;1.60;;;;;;;;;;4918553;29;20759;-72
2023/10/15 14:50:44;;;;;;;2.90;1.57;;;;;;;;;;4935983;29;20453;-70
2023/10/15 14:53:10;;;;;;;2.37;1.07;;;;;;;;;;4936045;29;20929;-72
2023/10/15 14:55:37;;;;;;;3.50;1.60;;;;;;;;;;4935912;29;20437;-73
2023/10/15 14:58:05;;;;;;;3.43;1.20;;;;;;;;;;4935742;29;20910;-73
2023/10/15 15:00:31;;;;;;;2.07;1.00;;;;;;;;;;4935455;29;21089;-71
2023/10/15 15:02:58;;;;;;;3.13;1.30;;;;;;;;;;4935548;29;20460;-72
2023/10/15 15:05:24;;;;;;;1.70;1.33;;;;;;;;;;4935655;29;20810;-72
2023/10/15 15:07:50;;;;;;;2.90;1.73;;;;;;;;;;4935306;29;20434;-72
2023/10/15 15:10:17;;;;;;;3.13;1.40;;;;;;;;;;4935600;29;20448;-72
2023/10/15 15:12:43;;;;;;;4.47;1.43;;;;;;;;;;4935516;29;20414;-71
2023/10/15 15:15:10;;;;;;;2.00;1.43;;;;;;;;;;4935267;29;20433;-72
2023/10/15 15:17:37;;;;;;;4.00;1.53;;;;;;;;;;4934835;29;20501;-72
2023/10/15 15:20:05;;;;;;;12.70;2.23;;;;;;;;;;4934898;29;20418;-72
2023/10/15 15:22:31;;;;;;;3.13;1.30;;;;;;;;;;4934963;29;20880;-72
2023/10/15 15:24:57;;;;;;;2.07;1.47;;;;;;;;;;4930018;29;20446;-72
2023/10/15 15:27:23;;;;;;;2.93;1.30;;;;;;;;;;4945859;29;20776;-71
2023/10/15 15:29:49;;;;;;;1.77;1.27;;;;;;;;;;4935625;29;20428;-72
2023/10/15 15:32:15;;;;;;;4.30;1.43;;;;;;;;;;4953463;28;20432;-72
2023/10/15 15:34:42;;;;;;;2.90;1.40;;;;;;;;;;4953473;29;20417;-71
2023/10/15 15:37:08;;;;;;;5.10;1.43;;;;;;;;;;4936531;29;20428;-71
2023/10/15 15:39:34;;;;;;;5.70;1.60;;;;;;;;;;4954089;29;20416;-71
2023/10/15 15:42:00;;;;;;;3.27;1.53;;;;;;;;;;4943648;28;20881;-71
2023/10/15 15:44:26;;;;;;;2.60;1.50;;;;;;;;;;4934818;29;20409;-71
2023/10/15 15:46:52;;;;;;;2.70;1.37;;;;;;;;;;4934545;29;20504;-71
2023/10/15 15:49:18;;;;;;;4.83;1.67;;;;;;;;;;4934445;29;20409;-71
2023/10/15 15:51:43;;;;;;;5.53;1.50;;;;;;;;;;4917528;29;20444;-71
2023/10/15 15:54:09;;;;;;;3.80;1.47;;;;;;;;;;4934826;29;20483;-71
2023/10/15 15:56:35;;;;;;;5.07;1.33;;;;;;;;;;4934616;29;20425;-71
2023/10/15 15:59:02;;;;;;;3.60;1.53;;;;;;;;;;4934375;29;20414;-71
2023/10/15 16:01:28;;;;;;;2.20;1.20;;;;;;;;;;4933465;29;20929;-71
2023/10/15 16:03:57;;;;;;;1.70;1.20;;;;;;;;;;4934531;29;20414;-71
2023/10/15 16:06:23;;;;;;;2.00;1.57;;;;;;;;;;4933796;29;20425;-71
2023/10/15 16:08:49;;;;;;;2.67;1.57;;;;;;;;;;4934265;29;20489;-71
2023/10/15 16:11:15;;;;;;;2.87;1.23;;;;;;;;;;4934392;29;20592;-71
2023/10/15 16:13:43;;;;;;;6.30;2.70;;;;;;;;;;4934464;29;20894;-71
2023/10/15 16:16:10;;;;;;;10.83;4.07;;;;;;;;;;4934309;29;20778;-71
2023/10/15 16:18:36;;;;;;;2.50;1.40;;;;;;;;;;4934257;29;20421;-71
2023/10/15 16:21:02;;;;;;;3.00;1.33;;;;;;;;;;4934355;29;20520;-71
2023/10/15 16:23:28;;;;;;;2.43;1.30;;;;;;;;;;4934231;29;20468;-71
2023/10/15 16:25:55;;;;;;;4.40;2.20;;;;;;;;;;4934472;29;20414;-71
2023/10/15 16:28:21;;;;;;;4.00;1.50;;;;;;;;;;4934178;29;20416;-72
2023/10/15 16:30:50;;;;;;;4.10;1.93;;;;;;;;;;4934209;29;21029;-72
2023/10/15 16:33:17;;;;;;;3.27;1.40;;;;;;;;;;4934600;29;20414;-71
2023/10/15 16:35:43;;;;;;;2.40;1.23;;;;;;;;;;4934399;29;20449;-71
2023/10/15 16:38:09;;;;;;;4.80;1.33;;;;;;;;;;4933958;29;20460;-72
2023/10/15 16:40:36;;;;;;;4.40;1.83;;;;;;;;;;4934332;29;20444;-72
2023/10/15 16:43:02;;;;;;;1.63;1.40;;;;;;;;;;4934045;29;20453;-71
2023/10/15 16:45:28;;;;;;;4.03;1.57;;;;;;;;;;4934206;29;20414;-71
2023/10/15 16:47:54;;;;;;;2.43;1.73;;;;;;;;;;4934085;29;20413;-72
2023/10/15 16:50:20;;;;;;;3.07;1.63;;;;;;;;;;4917051;29;20804;-72
2023/10/15 16:52:46;;;;;;;1.90;1.50;;;;;;;;;;4934304;29;20409;-72
2023/10/15 16:55:13;;;;;;;3.13;1.70;;;;;;;;;;4934433;29;20421;-72
2023/10/15 16:57:39;;;;;;;4.43;1.87;;;;;;;;;;4933994;29;20423;-72
2023/10/15 17:00:05;;;;;;;2.20;1.50;;;;;;;;;;4934267;29;20414;-72
2023/10/15 17:02:31;;;;;;;5.30;1.90;;;;;;;;;;4936242;29;20484;-70
2023/10/15 17:04:57;;;;;;;6.53;1.47;;;;;;;;;;4946777;29;20406;-70
2023/10/15 17:07:29;;;;;;;2.63;1.63;;;;;;;;;;4948003;29;20414;-70
2023/10/15 17:09:56;;;;;;;1.60;1.30;;;;;;;;;;4934112;29;20410;-71
2023/10/15 17:12:22;;;;;;;3.17;1.90;;;;;;;;;;4935461;29;20465;-71
2023/10/15 17:14:48;;;;;;;2.93;1.97;;;;;;;;;;5001143;23;20498;-70
2023/10/15 17:17:17;;;;;;;4.07;1.80;;;;;;;;;;4980215;28;20412;-69
2023/10/15 17:19:43;;;;;;;3.10;2.30;;;;;;;;;;4978060;28;20416;-69
2023/10/15 17:22:09;;;;;;;10.53;2.20;;;;;;;;;;4976612;28;20463;-68
2023/10/15 17:24:35;;;;;;;4.20;2.23;;;;;;;;;;4974242;28;20483;-69
2023/10/15 17:27:02;;;;;;;1.50;1.40;;;;;;;;;;4964650;28;20801;-70
2023/10/15 17:29:28;;;;;;;4.23;2.20;;;;;;;;;;4969919;28;20416;-69
2023/10/15 17:31:57;;;;;;;2.20;1.50;;;;;;;;;;4957277;28;20428;-68
2023/10/15 17:34:27;;;;;;;3.80;1.87;;;;;;;;;;4976375;28;20516;-69
2023/10/15 17:36:53;;;;;;;3.50;1.80;;;;;;;;;;4975116;28;20438;-71
2023/10/15 17:39:20;;;;;;;2.60;1.53;;;;;;;;;;4976366;28;20444;-68
2023/10/15 17:41:46;;;;;;;6.20;2.27;;;;;;;;;;4976056;28;20467;-68
2023/10/15 17:44:16;;;;;;;2.87;1.80;;;;;;;;;;4958931;28;20926;-70
2023/10/15 17:46:42;;;;;;;4.27;2.40;;;;;;;;;;4975971;28;20463;-71
2023/10/15 17:49:08;;;;;;;2.53;1.60;;;;;;;;;;4976544;28;20963;-68
2023/10/15 17:51:34;;;;;;;5.17;1.97;;;;;;;;;;4976799;28;20408;-68
2023/10/15 17:54:00;;;;;;;3.23;1.90;;;;;;;;;;4959009;28;20788;-68
2023/10/15 17:56:30;;;;;;;8.13;1.90;;;;;;;;;;4976735;28;20474;-70
2023/10/15 17:58:56;;;;;;;3.80;1.73;;;;;;;;;;4958710;28;20931;-68
2023/10/15 18:01:22;;;;;;;4.30;2.50;;;;;;;;;;4976100;28;20415;-70
2023/10/15 18:03:51;;;;;;;3.80;2.40;;;;;;;;;;4975962;28;20722;-69
2023/10/15 18:06:18;;;;;;;5.40;2.80;;;;;;;;;;4979010;28;20424;-70
2023/10/15 18:08:45;;;;;;;4.00;2.40;;;;;;;;;;4978499;28;20785;-69
2023/10/15 18:11:11;;;;;;;4.77;2.60;;;;;;;;;;4977925;28;20412;-69
2023/10/15 18:13:40;;;;;;;3.00;1.97;;;;;;;;;;4977861;28;20470;-71
2023/10/15 18:16:07;;;;;;;5.07;2.60;;;;;;;;;;4975743;28;20414;-68
2023/10/15 18:18:33;;;;;;;2.37;1.87;;;;;;;;;;4979523;28;20921;-70
2023/10/15 18:20:59;;;;;;;4.67;1.97;;;;;;;;;;4976053;28;20434;-69
2023/10/15 18:23:25;;;;;;;5.93;3.07;;;;;;;;;;4974944;28;20963;-69
2023/10/15 18:25:51;;;;;;;3.30;2.23;;;;;;;;;;4975474;28;20412;-69
2023/10/15 18:28:17;;;;;;;9.30;3.20;;;;;;;;;;4975487;28;20423;-70
2023/10/15 18:30:43;;;;;;;7.90;2.47;;;;;;;;;;4975380;28;20424;-72
2023/10/15 18:33:09;;;;;;;6.10;3.20;;;;;;;;;;4975370;28;20467;-72
2023/10/15 18:35:36;;;;;;;4.97;3.07;;;;;;;;;;4975129;28;20498;-69
2023/10/15 18:38:03;;;;;;;6.83;3.50;;;;;;;;;;4975188;28;20654;-70
2023/10/15 18:40:29;;;;;;;5.10;2.73;;;;;;;;;;4975476;28;20408;-69
2023/10/15 18:42:55;;;;;;;5.20;2.90;;;;;;;;;;4957583;28;20863;-69
2023/10/15 18:45:21;;;;;;;8.57;4.17;;;;;;;;;;4975425;28;20787;-69
2023/10/15 18:47:47;;;;;;;4.83;3.50;;;;;;;;;;4975009;28;20418;-69
2023/10/15 18:50:13;;;;;;;12.83;3.67;;;;;;;;;;4975296;28;20970;-70
2023/10/15 18:52:39;;;;;;;4.20;3.07;;;;;;;;;;4975209;28;20430;-69
2023/10/15 18:55:05;;;;;;;7.57;3.30;;;;;;;;;;4974646;28;20468;-71
2023/10/15 18:57:31;;;;;;;9.30;3.90;;;;;;;;;;4975190;28;20451;-69
2023/10/15 18:59:57;;;;;;;7.30;3.53;;;;;;;;;;4974930;28;20416;-69
2023/10/15 19:02:24;;;;;;;9.07;3.90;;;;;;;;;;4975735;28;20455;-68
2023/10/15 19:04:50;;;;;;;7.60;3.80;;;;;;;;;;4981122;28;20440;-71
2023/10/15 19:07:17;;;;;;;5.60;3.33;;;;;;;;;;4979696;28;20895;-70
2023/10/15 19:09:43;;;;;;;8.13;4.00;;;;;;;;;;4975479;28;20887;-70
2023/10/15 19:12:09;;;;;;;8.10;3.70;;;;;;;;;;4978801;28;20412;-71
2023/10/15 19:14:35;;;;;;;9.97;4.53;;;;;;;;;;4995870;28;20507;-72
2023/10/15 19:17:01;;;;;;;6.07;3.23;;;;;;;;;;4979327;28;20420;-71
2023/10/15 19:19:27;;;;;;;13.60;4.40;;;;;;;;;;4994650;28;20526;-70
2023/10/15 19:21:54;;;;;;;9.70;4.17;;;;;;;;;;4994902;28;20486;-71
2023/10/15 19:24:20;;;;;;;7.17;4.00;;;;;;;;;;4980747;28;20518;-69
2023/10/15 19:26:46;;;;;;;9.50;3.90;;;;;;;;;;4972639;28;20472;-72
2023/10/15 19:29:13;;;;;;;17.70;4.20;;;;;;;;;;4951639;28;20939;-69
2023/10/15 19:31:39;;;;;;;6.90;4.40;;;;;;;;;;4976354;28;20420;-70
2023/10/15 19:34:05;;;;;;;9.83;4.83;;;;;;;;;;4977034;28;20881;-69
2023/10/15 19:36:31;;;;;;;8.60;4.50;;;;;;;;;;4974157;28;20465;-71
2023/10/15 19:38:57;;;;;;;10.57;5.00;;;;;;;;;;4957197;28;20514;-69
2023/10/15 19:41:26;;;;;;;11.17;4.47;;;;;;;;;;4974544;28;20423;-69